createdAt,value
2023-03-10T06:04:50.929Z,-4.18
2023-03-10T06:07:20.667Z,-4.13
2023-03-10T06:09:47.752Z,-4.11
2023-03-10T06:12:14.873Z,-4.11
2023-03-10T06:14:42.226Z,-4.09
2023-03-10T06:19:59.467Z,-4.06
2023-03-10T06:22:27.313Z,-4.06
2023-03-10T06:24:59.477Z,-4.04
2023-03-10T06:27:29.804Z,-4.08
2023-03-10T06:32:47.191Z,-4.15
2023-03-10T06:35:17.189Z,-4.25
2023-03-10T06:40:41.805Z,-4.47
2023-03-10T06:43:10.997Z,-4.44
2023-03-10T06:48:35.346Z,-4.38
2023-03-10T06:51:04.807Z,-4.37
2023-03-10T06:53:42.179Z,-4.34
2023-03-10T06:57:05.381Z,-4.38
2023-03-10T06:59:41.867Z,-4.34
2023-03-10T07:02:16.487Z,-4.32
2023-03-10T07:05:10.403Z,-4.28
2023-03-10T07:17:15.133Z,-3.71
2023-03-10T07:19:46.340Z,-3.71
2023-03-10T07:22:15.957Z,-3.59
2023-03-10T07:24:43.407Z,-3.40
2023-03-10T07:27:10.473Z,-3.24
2023-03-10T07:29:37.914Z,-3.15
2023-03-10T07:32:05.868Z,-3.08
2023-03-10T07:34:39.667Z,-3.04
2023-03-10T07:37:10.910Z,-3.06
2023-03-10T07:39:40.707Z,-3.05
2023-03-10T07:42:07.926Z,-3.01
2023-03-10T07:44:35.378Z,-2.95
2023-03-10T07:47:02.319Z,-2.86
2023-03-10T07:49:32.022Z,-2.79
2023-03-10T07:51:59.394Z,-2.79
2023-03-10T07:54:26.785Z,-2.84
2023-03-10T07:56:54.148Z,-2.89
2023-03-10T07:59:21.302Z,-2.87
2023-03-10T08:01:51.012Z,-2.75
2023-03-10T08:04:18.571Z,-2.61
2023-03-10T08:06:54.902Z,-2.50
2023-03-10T08:09:24.293Z,-2.40
2023-03-10T08:11:51.948Z,-2.32
2023-03-10T08:14:24.167Z,-2.32
2023-03-10T08:16:52.371Z,-2.41
2023-03-10T08:19:32.042Z,-2.41
2023-03-10T08:22:11.417Z,-2.24
2023-03-10T08:57:42.733Z,-1.99
2023-03-10T09:00:17.572Z,-2.07
2023-03-10T09:02:49.854Z,-2.11
2023-03-10T09:27:17.029Z,-1.83
2023-03-10T09:29:44.235Z,-1.83
2023-03-10T09:32:13.890Z,-1.93
2023-03-10T09:34:58.093Z,-2.02
2023-03-10T09:37:25.266Z,-2.12
2023-03-10T09:39:52.729Z,-2.23
2023-03-10T09:42:42.795Z,-2.24
2023-03-10T09:45:18.711Z,-2.24
2023-03-10T09:47:50.037Z,-2.27
2023-03-10T09:54:55.341Z,-2.23
2023-03-10T09:57:28.343Z,-2.21
2023-03-10T09:59:58.112Z,-2.19
2023-03-10T10:02:30.791Z,-2.14
2023-03-10T10:05:05.524Z,-2.03
2023-03-10T10:07:44.316Z,-1.96
2023-03-10T10:10:20.355Z,-1.94
2023-03-10T10:12:50.006Z,-1.99
2023-03-10T10:15:18.303Z,-1.97
2023-03-10T10:18:16.180Z,-1.92
2023-03-10T10:20:47.751Z,-2.00
2023-03-10T10:23:17.811Z,-2.05
2023-03-10T10:25:51.889Z,-2.19
2023-03-10T10:28:23.994Z,-2.31
2023-03-10T10:30:51.715Z,-2.33
2023-03-10T10:33:21.386Z,-2.29
2023-03-10T10:36:02.547Z,-2.28
2023-03-10T10:38:31.399Z,-2.36
2023-03-10T10:41:07.312Z,-2.42
2023-03-10T10:43:43.661Z,-2.37
2023-03-10T10:46:14.723Z,-2.32
2023-03-10T10:52:18.381Z,-2.19
2023-03-10T10:58:05.932Z,-2.00
2023-03-10T11:01:05.303Z,-1.93
2023-03-10T11:06:37.274Z,-1.77
2023-03-10T11:09:23.971Z,-1.79
2023-03-10T11:11:55.361Z,-1.76
2023-03-10T11:14:35.534Z,-1.86
2023-03-10T11:17:17.132Z,-1.99
2023-03-10T11:20:04.362Z,-2.13
2023-03-10T11:22:31.281Z,-2.25
2023-03-10T11:25:07.340Z,-2.31
2023-03-10T11:27:43.508Z,-2.35
2023-03-10T11:30:33.670Z,-2.36
2023-03-10T11:33:26.215Z,-2.35
2023-03-10T11:35:59.866Z,-2.28
2023-03-10T11:38:54.854Z,-2.26
2023-03-10T11:41:24.563Z,-2.30
2023-03-10T11:43:54.419Z,-2.38
2023-03-10T11:46:21.489Z,-2.37
2023-03-10T11:52:02.238Z,-2.47
2023-03-10T11:54:34.650Z,-2.44
2023-03-10T11:57:04.306Z,-2.42
2023-03-10T11:59:37.215Z,-2.42
2023-03-10T12:02:04.990Z,-2.46
2023-03-10T12:04:42.067Z,-2.43
2023-03-10T12:07:13.359Z,-2.36
2023-03-10T12:09:42.793Z,-2.22
2023-03-10T12:12:18.935Z,-2.08
2023-03-10T12:14:46.741Z,-1.98
2023-03-10T12:17:15.331Z,-1.90
2023-03-10T12:20:01.059Z,-1.77
2023-03-10T12:22:38.016Z,-1.62
2023-03-10T12:25:05.263Z,-1.46
2023-03-10T12:27:52.006Z,-1.39
2023-03-10T12:30:37.450Z,-1.47
2023-03-10T12:33:04.351Z,-1.51
2023-03-10T12:35:49.538Z,-1.47
2023-03-10T12:38:23.181Z,-1.44
2023-03-10T12:40:51.749Z,-1.45
2023-03-10T12:43:44.318Z,-1.53
2023-03-10T12:46:31.686Z,-1.58
2023-03-10T12:49:02.055Z,-1.59
2023-03-10T12:51:29.175Z,-1.53
2023-03-10T12:54:05.003Z,-1.54
2023-03-10T12:56:52.733Z,-1.59
2023-03-10T12:59:25.882Z,-1.60
2023-03-10T13:01:56.263Z,-1.64
2023-03-10T13:04:23.897Z,-1.65
2023-03-10T13:06:55.435Z,-1.65
2023-03-10T13:09:33.027Z,-1.59
2023-03-10T13:12:04.173Z,-1.57
2023-03-10T13:14:40.054Z,-1.66
2023-03-10T13:17:07.387Z,-1.72
2023-03-10T13:19:35.341Z,-1.71
2023-03-10T13:22:02.226Z,-1.72
2023-03-10T13:24:30.446Z,-1.52
2023-03-10T13:27:08.172Z,-0.78
2023-03-10T13:29:35.339Z,-0.15
2023-03-10T13:32:02.532Z,0.47
2023-03-10T13:34:30.534Z,1.27
2023-03-10T13:42:42.903Z,4.74
2023-03-10T13:45:15.454Z,5.88
2023-03-10T13:47:43.398Z,6.70
2023-03-10T13:50:40.434Z,7.36
2023-03-10T13:53:28.582Z,7.96
2023-03-10T13:55:59.984Z,8.47
2023-03-10T13:58:27.880Z,8.81
2023-03-10T14:00:57.590Z,8.89
2023-03-10T14:03:58.181Z,8.94
2023-03-10T14:06:27.271Z,8.79
2023-03-10T14:08:57.109Z,7.83
2023-03-10T14:11:56.349Z,6.48
2023-03-10T14:14:58.760Z,4.84
2023-03-10T14:17:52.529Z,3.48
2023-03-10T14:20:26.447Z,2.46
2023-03-10T14:22:53.763Z,1.77
2023-03-10T14:25:23.066Z,1.20
2023-03-10T14:28:04.809Z,0.79
2023-03-10T14:30:32.882Z,0.41
2023-03-10T14:33:01.110Z,0.07
2023-03-10T14:35:30.534Z,-0.10
2023-03-10T14:37:58.329Z,-0.26
2023-03-10T14:40:25.673Z,-0.27
2023-03-10T14:42:54.814Z,-0.50
2023-03-10T14:45:35.673Z,-0.75
2023-03-10T14:48:04.634Z,-0.97
2023-03-10T14:50:32.484Z,-1.07
2023-03-10T14:52:59.793Z,-1.14
2023-03-10T14:55:26.895Z,-1.23
2023-03-10T14:58:17.438Z,-1.35
2023-03-10T15:00:48.908Z,-1.51
2023-03-10T15:03:21.753Z,-1.67
2023-03-10T15:05:49.606Z,-1.81
2023-03-10T15:08:18.303Z,-1.94
2023-03-10T15:10:51.837Z,-2.05
2023-03-10T15:13:25.065Z,-2.17
2023-03-10T15:15:52.688Z,-2.35
2023-03-10T15:18:22.863Z,-2.52
2023-03-10T15:20:53.319Z,-2.67
2023-03-10T15:23:35.202Z,-2.79
2023-03-10T15:26:09.865Z,-2.89
2023-03-10T15:38:05.748Z,-3.22
2023-03-10T15:43:14.725Z,-3.37
2023-03-10T15:48:29.394Z,-3.45
2023-03-10T15:50:56.491Z,-3.48
2023-03-10T15:53:23.590Z,-3.50
2023-03-10T15:58:58.558Z,-3.61
2023-03-10T16:01:27.131Z,-3.65
2023-03-10T16:03:57.970Z,-3.68
2023-03-10T16:06:27.728Z,-3.70
2023-03-10T16:09:04.133Z,-3.73
2023-03-10T16:16:00.734Z,-3.82
2023-03-10T16:18:30.774Z,-3.85
2023-03-10T16:21:08.447Z,-3.88
2023-03-10T16:23:39.293Z,-3.91
2023-03-10T16:26:12.861Z,-3.93
2023-03-10T16:28:42.900Z,-3.94
2023-03-10T16:31:11.323Z,-3.95
2023-03-10T16:33:42.057Z,-3.95
2023-03-10T16:36:24.156Z,-3.95
2023-03-10T16:48:46.530Z,-3.86
2023-03-10T16:54:34.984Z,-3.83
2023-03-10T16:57:03.711Z,-3.84
2023-03-10T16:59:36.128Z,-3.84
2023-03-10T17:03:21.764Z,-3.84
2023-03-10T17:05:55.613Z,-3.81
2023-03-10T17:08:30.292Z,-3.80
2023-03-10T17:11:03.880Z,-3.79
2023-03-10T17:13:34.807Z,-3.82
2023-03-10T17:16:02.257Z,-3.84
2023-03-10T17:18:31.031Z,-3.84
2023-03-10T17:20:58.111Z,-3.82
2023-03-10T17:23:25.348Z,-3.81
2023-03-10T17:25:56.879Z,-3.81
2023-03-10T17:28:27.729Z,-3.80
2023-03-10T17:31:01.985Z,-3.82
2023-03-10T17:33:31.696Z,-3.83
2023-03-10T17:35:59.380Z,-3.84
2023-03-10T17:38:27.011Z,-3.84
2023-03-10T17:40:57.637Z,-3.83
2023-03-10T17:43:34.013Z,-3.83
2023-03-10T17:46:05.777Z,-3.80
2023-03-10T17:48:34.053Z,-3.76
2023-03-10T18:28:35.679Z,-3.54
2023-03-10T18:38:55.692Z,-3.50
2023-03-10T19:13:14.536Z,-3.22
2023-03-10T20:37:25.552Z,-2.92
2023-03-10T20:48:25.183Z,-2.91
2023-03-10T21:11:33.077Z,-2.89
2023-03-10T21:33:04.079Z,-2.90
2023-03-10T21:56:05.287Z,-2.88
2023-03-10T22:27:51.425Z,-3.00
2023-03-10T22:30:21.829Z,-2.99
2023-03-10T22:48:39.643Z,-3.00
2023-03-10T22:51:11.108Z,-3.01
2023-03-10T22:56:55.368Z,-3.01
2023-03-10T23:02:40.772Z,-3.04
2023-03-10T23:38:00.480Z,-2.99
2023-03-10T23:51:49.764Z,-3.03
